createdAt,value
2022-11-01T00:00:49.597Z,9.51
2022-11-01T00:03:35.920Z,9.78
2022-11-01T00:06:22.897Z,9.59
2022-11-01T00:09:09.200Z,9.72
2022-11-01T00:11:55.391Z,9.58
2022-11-01T00:14:41.797Z,9.53
2022-11-01T00:17:28.106Z,9.50
2022-11-01T00:20:14.457Z,9.44
2022-11-01T00:23:00.790Z,9.11
2022-11-01T00:25:47.741Z,9.38
2022-11-01T00:28:34.438Z,9.58
2022-11-01T00:31:23.056Z,9.33
2022-11-01T00:34:09.507Z,9.35
2022-11-01T00:36:55.753Z,9.26
2022-11-01T00:39:42.420Z,9.20
2022-11-01T00:42:28.589Z,9.41
2022-11-01T00:45:15.240Z,9.03
2022-11-01T00:48:01.699Z,9.19
2022-11-01T00:50:47.831Z,9.20
2022-11-01T00:53:34.532Z,9.29
2022-11-01T00:56:20.862Z,9.03
2022-11-01T00:59:07.876Z,9.23
2022-11-01T01:01:54.173Z,8.87
2022-11-01T01:04:43.081Z,9.31
2022-11-01T01:07:29.517Z,9.37
2022-11-01T01:10:15.961Z,8.75
2022-11-01T01:13:02.886Z,9.03
2022-11-01T01:15:49.591Z,9.32
2022-11-01T01:18:35.759Z,8.95
2022-11-01T01:21:22.235Z,9.13
2022-11-01T01:24:08.791Z,9.09
2022-11-01T01:26:55.347Z,9.29
2022-11-01T01:29:43.436Z,9.22
2022-11-01T01:32:29.989Z,9.01
2022-11-01T01:35:16.228Z,8.94
2022-11-01T01:38:02.901Z,9.10
2022-11-01T01:40:49.118Z,9.15
2022-11-01T01:43:45.096Z,9.24
2022-11-01T01:46:31.479Z,9.18
2022-11-01T01:49:18.006Z,9.28
2022-11-01T01:52:04.857Z,9.32
2022-11-01T01:54:51.738Z,9.31
2022-11-01T01:57:39.641Z,9.31
2022-11-01T02:00:27.017Z,9.44
2022-11-01T02:03:14.826Z,9.38
2022-11-01T02:06:14.637Z,9.09
2022-11-01T02:09:04.196Z,9.58
2022-11-01T02:11:50.705Z,9.36
2022-11-01T02:14:37.620Z,9.70
2022-11-01T02:17:56.143Z,9.61
2022-11-01T02:20:51.857Z,9.53
2022-11-01T02:24:16.749Z,9.68
2022-11-01T02:27:24.213Z,9.53
2022-11-01T02:30:18.262Z,9.59
2022-11-01T02:33:22.418Z,9.42
2022-11-01T02:36:16.375Z,9.55
2022-11-01T02:39:20.068Z,9.51
2022-11-01T02:42:20.959Z,9.50
2022-11-01T02:45:27.563Z,9.49
2022-11-01T02:48:14.058Z,9.85
2022-11-01T02:51:00.694Z,9.58
2022-11-01T02:53:47.102Z,9.97
2022-11-01T02:56:34.309Z,9.96
2022-11-01T02:59:25.560Z,9.82
2022-11-01T03:02:39.472Z,9.79
2022-11-01T03:06:06.292Z,9.51
2022-11-01T03:09:10.024Z,9.68
2022-11-01T03:12:04.780Z,9.83
2022-11-01T03:15:07.456Z,9.95
2022-11-01T03:18:04.668Z,9.88
2022-11-01T03:20:59.261Z,9.81
2022-11-01T03:24:02.930Z,9.79
2022-11-01T03:27:04.486Z,9.59
2022-11-01T03:29:58.374Z,9.64
2022-11-01T03:32:48.072Z,9.98
2022-11-01T03:35:40.749Z,9.87
2022-11-01T03:38:30.400Z,9.81
2022-11-01T03:41:19.324Z,9.96
2022-11-01T03:44:06.852Z,9.68
2022-11-01T03:46:53.137Z,9.80
2022-11-01T03:49:39.646Z,9.92
2022-11-01T03:52:26.277Z,9.96
2022-11-01T03:55:20.163Z,10.04
2022-11-01T03:58:07.446Z,9.86
2022-11-01T04:00:55.765Z,9.83
2022-11-01T04:03:43.102Z,9.91
2022-11-01T04:06:29.697Z,9.89
2022-11-01T04:09:15.889Z,10.06
2022-11-01T04:12:02.080Z,10.01
2022-11-01T04:15:07.051Z,9.84
2022-11-01T04:18:31.022Z,10.03
2022-11-01T04:21:24.711Z,10.26
2022-11-01T04:24:11.185Z,10.03
2022-11-01T04:26:57.449Z,10.10
2022-11-01T04:29:44.036Z,10.08
2022-11-01T04:32:30.497Z,10.23
2022-11-01T04:35:16.855Z,10.33
2022-11-01T04:38:04.011Z,10.14
2022-11-01T04:40:50.650Z,10.38
2022-11-01T04:43:37.084Z,10.31
2022-11-01T04:46:23.790Z,10.21
2022-11-01T04:49:10.112Z,10.26
2022-11-01T04:51:56.584Z,10.31
2022-11-01T04:54:42.685Z,10.49
2022-11-01T04:57:29.277Z,10.23
2022-11-01T05:00:16.049Z,10.33
2022-11-01T05:03:04.708Z,10.36
2022-11-01T05:05:51.428Z,10.46
2022-11-01T05:08:37.506Z,10.22
2022-11-01T05:11:25.792Z,9.95
2022-11-01T05:14:12.777Z,10.14
2022-11-01T05:16:59.150Z,10.05
2022-11-01T05:19:45.356Z,10.24
2022-11-01T05:22:31.635Z,10.04
2022-11-01T05:25:18.144Z,10.28
2022-11-01T05:28:11.853Z,10.09
2022-11-01T05:30:58.730Z,10.12
2022-11-01T05:33:45.354Z,10.32
2022-11-01T05:36:31.610Z,10.13
2022-11-01T05:39:18.128Z,10.28
2022-11-01T05:42:04.654Z,10.36
2022-11-01T05:44:50.875Z,10.33
2022-11-01T05:47:40.229Z,10.18
2022-11-01T05:50:26.800Z,10.20
2022-11-01T05:53:14.361Z,10.33
2022-11-01T05:56:00.728Z,10.44
2022-11-01T05:58:47.697Z,10.50
2022-11-01T06:01:34.101Z,10.57
2022-11-01T06:04:22.532Z,10.50
2022-11-01T06:07:08.960Z,10.55
2022-11-01T06:09:55.243Z,10.39
2022-11-01T06:12:41.694Z,10.31
2022-11-01T06:15:28.299Z,10.28
2022-11-01T06:18:14.548Z,10.36
2022-11-01T06:21:00.794Z,10.24
2022-11-01T06:23:48.142Z,10.15
2022-11-01T06:26:34.403Z,10.19
2022-11-01T06:29:20.992Z,10.42
2022-11-01T06:32:07.238Z,10.35
2022-11-01T06:34:53.391Z,10.32
2022-11-01T06:37:39.869Z,10.61
2022-11-01T06:40:26.013Z,10.49
2022-11-01T06:43:12.481Z,10.54
2022-11-01T06:46:00.872Z,10.66
2022-11-01T06:48:48.954Z,10.60
2022-11-01T06:51:35.238Z,10.47
2022-11-01T06:54:21.316Z,10.45
2022-11-01T06:57:08.019Z,10.53
2022-11-01T06:59:54.744Z,10.55
2022-11-01T07:02:41.104Z,10.73
2022-11-01T07:05:31.659Z,10.69
2022-11-01T07:08:20.985Z,10.87
2022-11-01T07:11:07.183Z,10.77
2022-11-01T07:13:53.269Z,10.84
2022-11-01T07:16:40.041Z,10.98
2022-11-01T07:19:26.380Z,11.00
2022-11-01T07:22:12.561Z,10.89
2022-11-01T07:24:59.908Z,10.98
2022-11-01T07:27:46.061Z,11.10
2022-11-01T07:30:32.537Z,11.04
2022-11-01T07:33:19.253Z,11.18
2022-11-01T07:36:05.913Z,11.24
2022-11-01T07:38:52.226Z,11.42
2022-11-01T07:41:38.707Z,11.32
2022-11-01T07:44:25.227Z,11.47
2022-11-01T07:47:11.785Z,11.77
2022-11-01T07:49:57.988Z,11.76
2022-11-01T07:52:45.205Z,11.65
2022-11-01T07:55:31.807Z,11.76
2022-11-01T07:58:18.540Z,11.89
2022-11-01T08:01:05.230Z,12.16
2022-11-01T08:03:52.045Z,12.31
2022-11-01T08:06:38.635Z,12.27
2022-11-01T08:09:25.260Z,12.57
2022-11-01T08:12:11.504Z,13.02
2022-11-01T08:14:57.669Z,13.35
2022-11-01T08:17:44.225Z,13.98
2022-11-01T08:20:30.424Z,13.98
2022-11-01T08:23:17.276Z,14.23
2022-11-01T08:26:06.169Z,14.19
2022-11-01T08:28:52.514Z,14.56
2022-11-01T08:31:41.031Z,14.30
2022-11-01T08:34:27.562Z,14.56
2022-11-01T08:37:14.128Z,14.83
2022-11-01T08:40:00.388Z,14.76
2022-11-01T08:42:47.573Z,14.90
2022-11-01T08:45:33.769Z,15.04
2022-11-01T08:48:19.979Z,15.00
2022-11-01T08:51:06.323Z,15.03
2022-11-01T08:53:57.020Z,14.91
2022-11-01T08:56:43.535Z,14.98
2022-11-01T08:59:29.992Z,14.99
2022-11-01T09:02:16.497Z,15.23
2022-11-01T09:05:06.532Z,15.35
2022-11-01T09:08:00.568Z,15.64
2022-11-01T09:10:47.051Z,15.93
2022-11-01T09:13:34.276Z,16.09
2022-11-01T09:16:20.908Z,16.10
2022-11-01T09:19:06.962Z,16.30
2022-11-01T09:21:53.471Z,16.57
2022-11-01T09:24:40.041Z,16.60
2022-11-01T09:27:26.163Z,16.72
2022-11-01T09:30:12.574Z,16.97
2022-11-01T09:32:58.725Z,17.04
2022-11-01T09:35:54.100Z,17.21
2022-11-01T09:38:43.378Z,17.26
2022-11-01T09:41:36.955Z,17.50
2022-11-01T09:44:30.740Z,17.49
2022-11-01T09:47:22.139Z,17.53
2022-11-01T09:50:25.355Z,17.49
2022-11-01T09:53:18.464Z,17.52
2022-11-01T09:56:14.102Z,17.57
2022-11-01T09:59:12.497Z,17.63
2022-11-01T10:02:07.308Z,17.65
2022-11-01T10:05:34.029Z,17.61
2022-11-01T10:08:41.752Z,17.73
2022-11-01T10:11:42.587Z,17.74
2022-11-01T10:15:06.621Z,17.74
2022-11-01T10:17:55.157Z,17.80
2022-11-01T10:20:41.903Z,17.74
2022-11-01T10:23:40.544Z,17.72
2022-11-01T10:26:30.091Z,17.68
2022-11-01T10:29:23.305Z,17.55
2022-11-01T10:32:25.399Z,17.23
2022-11-01T10:35:23.048Z,17.52
2022-11-01T10:39:04.615Z,17.52
2022-11-01T10:41:48.796Z,17.53
2022-11-01T10:44:41.341Z,17.48
2022-11-01T10:47:28.299Z,17.56
2022-11-01T10:50:24.002Z,17.39
2022-11-01T10:53:12.392Z,17.44
2022-11-01T10:56:03.211Z,17.41
2022-11-01T10:58:57.598Z,17.42
2022-11-01T11:01:45.281Z,17.44
2022-11-01T11:04:32.080Z,17.46
2022-11-01T11:07:23.238Z,17.59
2022-11-01T11:10:31.002Z,17.73
2022-11-01T11:13:23.220Z,17.58
2022-11-01T11:16:23.528Z,17.62
2022-11-01T11:19:19.528Z,17.27
2022-11-01T11:22:08.381Z,17.13
2022-11-01T11:24:58.832Z,16.95
2022-11-01T11:27:52.989Z,17.03
2022-11-01T11:30:39.235Z,17.02
2022-11-01T11:33:25.524Z,16.99
2022-11-01T11:36:12.265Z,16.72
2022-11-01T11:38:59.805Z,16.54
2022-11-01T11:41:47.147Z,16.15
2022-11-01T11:44:55.709Z,16.48
2022-11-01T11:47:43.537Z,16.33
2022-11-01T11:50:32.487Z,16.24
2022-11-01T11:53:22.227Z,16.22
2022-11-01T11:56:11.698Z,15.99
2022-11-01T11:59:16.622Z,15.92
2022-11-01T12:02:06.082Z,15.99
2022-11-01T12:04:56.356Z,16.03
2022-11-01T12:07:51.951Z,16.21
2022-11-01T12:10:45.421Z,16.45
2022-11-01T12:13:37.306Z,16.60
2022-11-01T12:19:30.287Z,16.58
2022-11-01T12:22:16.549Z,16.37
2022-11-01T12:25:11.187Z,16.41
2022-11-01T12:28:01.746Z,16.50
2022-11-01T12:30:52.758Z,16.57
2022-11-01T12:34:03.652Z,16.35
2022-11-01T12:37:07.173Z,16.27
2022-11-01T12:40:05.153Z,16.24
2022-11-01T12:43:10.770Z,15.97
2022-11-01T12:46:02.940Z,16.01
2022-11-01T12:49:14.411Z,15.97
2022-11-01T12:52:10.719Z,15.85
2022-11-01T12:55:16.647Z,15.98
2022-11-01T12:58:15.839Z,16.05
2022-11-01T13:01:05.449Z,16.04
2022-11-01T13:04:15.751Z,16.10
2022-11-01T13:07:10.935Z,16.13
2022-11-01T13:10:27.780Z,16.18
2022-11-01T13:13:29.988Z,16.24
2022-11-01T13:16:25.182Z,16.06
2022-11-01T13:19:31.655Z,15.99
2022-11-01T13:22:37.460Z,16.05
2022-11-01T13:25:42.275Z,16.01
2022-11-01T13:28:34.457Z,15.99
2022-11-01T13:31:27.010Z,15.85
2022-11-01T13:34:30.691Z,15.75
2022-11-01T13:37:43.238Z,15.97
2022-11-01T13:40:41.069Z,16.07
2022-11-01T13:43:37.493Z,16.01
2022-11-01T13:47:08.628Z,15.91
2022-11-01T13:50:01.190Z,15.85
2022-11-01T13:53:19.676Z,15.79
2022-11-01T13:56:17.701Z,15.69
2022-11-01T13:59:13.942Z,15.58
2022-11-01T14:02:25.439Z,15.62
2022-11-01T14:05:13.444Z,15.44
2022-11-01T14:08:02.921Z,15.46
2022-11-01T14:10:50.493Z,15.41
2022-11-01T14:13:45.620Z,15.35
2022-11-01T14:16:31.785Z,15.36
2022-11-01T14:19:21.604Z,15.06
2022-11-01T14:22:27.616Z,15.30
2022-11-01T14:25:13.858Z,15.29
2022-11-01T14:28:18.605Z,15.36
2022-11-01T14:31:05.380Z,15.26
2022-11-01T14:33:56.124Z,15.20
2022-11-01T14:36:46.689Z,15.07
2022-11-01T14:39:40.714Z,15.21
2022-11-01T14:42:36.904Z,15.14
2022-11-01T14:45:30.723Z,14.84
2022-11-01T14:48:40.252Z,15.07
2022-11-01T14:51:39.184Z,14.86
2022-11-01T14:54:46.561Z,14.96
2022-11-01T14:57:34.804Z,14.87
2022-11-01T15:00:30.364Z,14.85
2022-11-01T15:03:17.445Z,14.80
2022-11-01T15:06:14.540Z,14.71
2022-11-01T15:09:04.936Z,14.93
2022-11-01T15:11:53.819Z,14.96
2022-11-01T15:14:44.361Z,14.85
2022-11-01T15:17:34.249Z,14.76
2022-11-01T15:20:21.543Z,14.97
2022-11-01T15:23:11.079Z,14.89
2022-11-01T15:26:00.433Z,14.84
2022-11-01T15:28:57.172Z,14.70
2022-11-01T15:31:51.829Z,14.54
2022-11-01T15:34:38.275Z,14.42
2022-11-01T15:37:32.507Z,14.42
2022-11-01T15:40:29.481Z,14.31
2022-11-01T15:43:19.737Z,13.99
2022-11-01T15:46:06.256Z,13.75
2022-11-01T15:48:54.773Z,13.34
2022-11-01T15:51:48.205Z,13.36
2022-11-01T15:55:02.799Z,13.29
2022-11-01T15:57:57.235Z,13.11
2022-11-01T16:00:53.908Z,12.91
2022-11-01T16:03:45.816Z,12.86
2022-11-01T16:06:46.987Z,12.75
2022-11-01T16:09:44.433Z,12.54
2022-11-01T16:12:35.874Z,12.49
2022-11-01T16:15:29.805Z,12.23
2022-11-01T16:18:17.025Z,12.22
2022-11-01T16:21:24.203Z,12.13
2022-11-01T16:24:15.561Z,12.05
2022-11-01T16:27:06.113Z,11.76
2022-11-01T16:29:52.894Z,11.41
2022-11-01T16:32:39.011Z,11.87
2022-11-01T16:35:36.144Z,11.85
2022-11-01T16:38:38.117Z,11.84
2022-11-01T16:41:37.962Z,11.75
2022-11-01T16:44:27.155Z,11.59
2022-11-01T16:47:15.468Z,11.52
2022-11-01T16:50:02.124Z,11.49
2022-11-01T16:52:48.667Z,11.20
2022-11-01T16:55:37.265Z,11.36
2022-11-01T16:58:26.669Z,11.22
2022-11-01T17:01:21.515Z,11.08
2022-11-01T17:04:11.066Z,11.16
2022-11-01T17:06:59.044Z,11.17
2022-11-01T17:09:45.857Z,11.10
2022-11-01T17:12:32.088Z,10.88
2022-11-01T17:15:13.007Z,10.96
2022-11-01T17:18:06.308Z,11.01
2022-11-01T17:20:53.036Z,10.87
2022-11-01T17:23:47.468Z,11.00
2022-11-01T17:26:42.968Z,10.99
2022-11-01T17:33:07.460Z,11.08
2022-11-01T17:35:54.062Z,11.04
2022-11-01T17:38:41.134Z,11.07
2022-11-01T17:41:27.439Z,10.98
2022-11-01T17:44:13.971Z,10.93
2022-11-01T17:47:00.755Z,10.53
2022-11-01T17:49:47.322Z,10.86
2022-11-01T17:52:33.988Z,11.06
2022-11-01T17:55:20.581Z,11.00
2022-11-01T17:58:08.045Z,11.13
2022-11-01T18:00:58.238Z,10.88
2022-11-01T18:03:44.518Z,11.18
2022-11-01T18:06:31.013Z,11.23
2022-11-01T18:09:25.950Z,11.33
2022-11-01T18:12:27.829Z,11.35
2022-11-01T18:15:25.773Z,11.44
2022-11-01T18:18:21.669Z,11.42
2022-11-01T18:21:15.889Z,11.47
2022-11-01T18:24:13.476Z,11.44
2022-11-01T18:27:02.171Z,11.20
2022-11-01T18:29:51.305Z,11.19
2022-11-01T18:33:10.148Z,11.03
2022-11-01T18:36:06.481Z,10.91
2022-11-01T18:39:16.253Z,10.76
2022-11-01T18:42:06.362Z,10.63
2022-11-01T18:44:57.763Z,10.61
2022-11-01T18:47:51.178Z,10.60
2022-11-01T18:50:38.555Z,10.66
2022-11-01T18:53:27.156Z,10.62
2022-11-01T18:56:18.448Z,10.59
2022-11-01T18:59:38.720Z,10.52
2022-11-01T19:02:28.231Z,10.46
2022-11-01T19:05:18.005Z,10.47
2022-11-01T19:08:19.050Z,10.29
2022-11-01T19:11:05.585Z,10.30
2022-11-01T19:13:52.355Z,10.24
2022-11-01T19:16:38.944Z,10.16
2022-11-01T19:19:25.618Z,10.10
2022-11-01T19:22:39.065Z,10.00
2022-11-01T19:25:32.193Z,9.91
2022-11-01T19:28:33.396Z,9.83
2022-11-01T19:31:38.776Z,9.90
2022-11-01T19:34:28.264Z,9.80
2022-11-01T19:37:18.429Z,9.66
2022-11-01T19:40:27.465Z,9.40
2022-11-01T19:43:19.513Z,9.39
2022-11-01T19:46:15.648Z,9.31
2022-11-01T19:49:02.273Z,9.22
2022-11-01T19:52:10.570Z,9.16
2022-11-01T19:54:57.101Z,9.04
2022-11-01T19:57:45.000Z,9.06
2022-11-01T20:00:33.634Z,8.95
2022-11-01T20:03:26.671Z,8.89
2022-11-01T20:06:16.269Z,8.82
2022-11-01T20:09:16.410Z,8.79
2022-11-01T20:12:03.274Z,8.75
2022-11-01T20:14:50.152Z,8.75
2022-11-01T20:17:36.909Z,8.68
2022-11-01T20:20:25.089Z,8.64
2022-11-01T20:23:25.699Z,8.62
2022-11-01T20:26:12.905Z,8.46
2022-11-01T20:28:59.655Z,8.48
2022-11-01T20:31:51.831Z,8.43
2022-11-01T20:34:39.035Z,8.33
2022-11-01T20:37:28.801Z,8.31
2022-11-01T20:40:15.870Z,8.28
2022-11-01T20:43:02.651Z,8.23
2022-11-01T20:45:49.012Z,8.18
2022-11-01T20:48:35.311Z,8.08
2022-11-01T20:51:21.819Z,8.13
2022-11-01T20:54:08.086Z,8.09
2022-11-01T20:56:54.547Z,8.06
2022-11-01T20:59:41.033Z,8.04
2022-11-01T21:02:28.022Z,8.03
2022-11-01T21:05:14.755Z,8.01
2022-11-01T21:08:24.312Z,7.94
2022-11-01T21:11:22.284Z,7.97
2022-11-01T21:14:15.280Z,8.05
2022-11-01T21:17:11.708Z,7.89
2022-11-01T21:19:58.281Z,7.90
2022-11-01T21:22:44.519Z,7.85
2022-11-01T21:25:31.320Z,7.88
2022-11-01T21:28:32.665Z,7.83
2022-11-01T21:31:39.012Z,7.73
2022-11-01T21:34:30.819Z,7.61
2022-11-01T21:37:22.014Z,7.57
2022-11-01T21:40:22.652Z,7.42
2022-11-01T21:43:24.982Z,7.43
2022-11-01T21:46:19.532Z,7.29
2022-11-01T21:49:22.462Z,7.45
2022-11-01T21:54:57.772Z,7.39
2022-11-01T21:57:44.434Z,7.44
2022-11-01T22:00:30.919Z,7.42
2022-11-01T22:03:17.216Z,7.29
2022-11-01T22:06:03.683Z,7.19
2022-11-01T22:08:49.984Z,7.19
2022-11-01T22:11:37.202Z,7.13
2022-11-01T22:14:24.338Z,7.06
2022-11-01T22:17:10.692Z,7.04
2022-11-01T22:19:57.114Z,7.00
2022-11-01T22:22:43.312Z,6.96
2022-11-01T22:25:29.647Z,7.00
2022-11-01T22:28:16.008Z,6.88
2022-11-01T22:31:02.297Z,6.88
2022-11-01T22:33:54.778Z,6.86
2022-11-01T22:36:42.283Z,6.77
2022-11-01T22:39:29.878Z,6.73
2022-11-01T22:42:17.397Z,6.67
2022-11-01T22:45:13.659Z,6.66
2022-11-01T22:48:00.257Z,6.69
2022-11-01T22:50:46.556Z,6.68
2022-11-01T22:53:32.651Z,6.64
2022-11-01T22:56:18.932Z,6.67
2022-11-01T22:59:09.823Z,6.59
2022-11-01T23:02:03.872Z,6.60
2022-11-01T23:04:57.515Z,6.53
2022-11-01T23:07:44.213Z,6.51
2022-11-01T23:10:35.058Z,6.53
2022-11-01T23:13:55.552Z,6.65
2022-11-01T23:16:44.099Z,6.72
2022-11-01T23:19:30.441Z,6.64
2022-11-01T23:22:21.527Z,6.70
2022-11-01T23:25:09.060Z,6.47
2022-11-01T23:27:55.505Z,6.64
2022-11-01T23:30:43.679Z,6.53
2022-11-01T23:33:45.210Z,6.49
2022-11-01T23:36:35.359Z,6.53
2022-11-01T23:39:22.106Z,6.24
2022-11-01T23:42:18.116Z,6.34
2022-11-01T23:45:06.268Z,6.25
2022-11-01T23:47:53.029Z,6.19
2022-11-01T23:50:39.505Z,6.10
2022-11-01T23:53:37.655Z,6.07
2022-11-01T23:56:24.203Z,6.13
2022-11-01T23:59:10.596Z,6.04
